sensor_id;sensor_type;location;lat;lon;timestamp;pressure;altitude;pressure_sealevel;temperature;humidity
6433;BME280;3249;42.690;23.260;2024-01-07T00:02:08;92744.28;;;4.23;100.00
6433;BME280;3249;42.690;23.260;2024-01-07T00:04:37;92730.19;;;3.91;100.00
6433;BME280;3249;42.690;23.260;2024-01-07T00:07:09;92735.72;;;4.18;100.00
6433;BME280;3249;42.690;23.260;2024-01-07T00:09:39;92733.47;;;4.10;100.00
6433;BME280;3249;42.690;23.260;2024-01-07T00:12:08;92735.22;;;4.27;100.00
6433;BME280;3249;42.690;23.260;2024-01-07T00:14:38;92727.03;;;4.55;100.00
6433;BME280;3249;42.690;23.260;2024-01-07T00:17:07;92724.31;;;4.50;100.00
6433;BME280;3249;42.690;23.260;2024-01-07T00:19:36;92721.47;;;4.58;100.00
6433;BME280;3249;42.690;23.260;2024-01-07T00:22:10;92725.94;;;4.74;100.00
6433;BME280;3249;42.690;23.260;2024-01-07T00:24:39;92708.25;;;4.79;100.00
6433;BME280;3249;42.690;23.260;2024-01-07T00:27:08;92717.00;;;4.83;100.00
6433;BME280;3249;42.690;23.260;2024-01-07T00:29:37;92712.00;;;4.88;100.00
6433;BME280;3249;42.690;23.260;2024-01-07T00:32:07;92709.25;;;4.89;100.00
6433;BME280;3249;42.690;23.260;2024-01-07T00:34:36;92696.59;;;4.94;100.00
6433;BME280;3249;42.690;23.260;2024-01-07T00:37:06;92687.63;;;4.92;100.00
6433;BME280;3249;42.690;23.260;2024-01-07T00:39:37;92682.13;;;4.54;100.00
6433;BME280;3249;42.690;23.260;2024-01-07T00:42:08;92682.28;;;4.59;100.00
6433;BME280;3249;42.690;23.260;2024-01-07T00:44:37;92664.66;;;4.69;100.00
6433;BME280;3249;42.690;23.260;2024-01-07T00:47:07;92666.63;;;4.44;100.00
6433;BME280;3249;42.690;23.260;2024-01-07T00:49:36;92660.91;;;4.60;100.00
6433;BME280;3249;42.690;23.260;2024-01-07T00:52:06;92661.47;;;4.73;100.00
6433;BME280;3249;42.690;23.260;2024-01-07T00:54:37;92646.84;;;4.69;100.00
6433;BME280;3249;42.690;23.260;2024-01-07T00:57:07;92639.28;;;4.51;100.00
6433;BME280;3249;42.690;23.260;2024-01-07T00:59:36;92632.63;;;4.50;100.00
6433;BME280;3249;42.690;23.260;2024-01-07T01:02:06;92639.63;;;4.66;100.00
6433;BME280;3249;42.690;23.260;2024-01-07T01:04:38;92640.09;;;4.74;100.00
6433;BME280;3249;42.690;23.260;2024-01-07T01:07:08;92635.31;;;4.78;100.00
6433;BME280;3249;42.690;23.260;2024-01-07T01:09:40;92625.25;;;4.83;100.00
6433;BME280;3249;42.690;23.260;2024-01-07T01:12:10;92620.69;;;4.85;100.00
6433;BME280;3249;42.690;23.260;2024-01-07T01:14:40;92622.22;;;4.86;100.00
6433;BME280;3249;42.690;23.260;2024-01-07T01:17:10;92615.91;;;4.88;100.00
6433;BME280;3249;42.690;23.260;2024-01-07T01:19:39;92607.84;;;5.03;100.00
6433;BME280;3249;42.690;23.260;2024-01-07T01:22:08;92605.16;;;4.98;100.00
6433;BME280;3249;42.690;23.260;2024-01-07T01:24:41;92600.19;;;5.03;100.00
6433;BME280;3249;42.690;23.260;2024-01-07T01:27:12;92592.22;;;4.88;100.00
6433;BME280;3249;42.690;23.260;2024-01-07T01:29:41;92569.94;;;4.49;100.00
6433;BME280;3249;42.690;23.260;2024-01-07T01:32:12;92568.19;;;4.61;100.00
6433;BME280;3249;42.690;23.260;2024-01-07T01:34:41;92560.44;;;4.79;100.00
6433;BME280;3249;42.690;23.260;2024-01-07T01:37:11;92553.78;;;4.55;100.00
6433;BME280;3249;42.690;23.260;2024-01-07T01:39:43;92538.16;;;4.74;100.00
6433;BME280;3249;42.690;23.260;2024-01-07T01:42:12;92549.69;;;4.65;100.00
6433;BME280;3249;42.690;23.260;2024-01-07T01:44:41;92550.56;;;4.71;100.00
6433;BME280;3249;42.690;23.260;2024-01-07T01:47:11;92529.94;;;4.72;100.00
6433;BME280;3249;42.690;23.260;2024-01-07T01:49:40;92531.41;;;4.80;100.00
6433;BME280;3249;42.690;23.260;2024-01-07T01:52:10;92524.06;;;4.95;100.00
6433;BME280;3249;42.690;23.260;2024-01-07T01:54:44;92509.97;;;5.04;100.00
6433;BME280;3249;42.690;23.260;2024-01-07T01:57:19;92501.94;;;5.12;100.00
6433;BME280;3249;42.690;23.260;2024-01-07T01:59:49;92498.53;;;4.67;100.00
6433;BME280;3249;42.690;23.260;2024-01-07T02:02:19;92505.13;;;4.91;100.00
6433;BME280;3249;42.690;23.260;2024-01-07T02:04:50;92506.19;;;5.07;100.00
6433;BME280;3249;42.690;23.260;2024-01-07T02:07:19;92507.28;;;5.11;100.00
6433;BME280;3249;42.690;23.260;2024-01-07T02:09:50;92515.59;;;5.06;100.00
6433;BME280;3249;42.690;23.260;2024-01-07T02:12:21;92508.38;;;4.75;100.00
6433;BME280;3249;42.690;23.260;2024-01-07T02:14:50;92510.44;;;4.78;100.00
6433;BME280;3249;42.690;23.260;2024-01-07T02:17:20;92503.97;;;4.98;100.00
6433;BME280;3249;42.690;23.260;2024-01-07T02:19:49;92480.56;;;5.13;100.00
6433;BME280;3249;42.690;23.260;2024-01-07T02:22:18;92455.25;;;4.95;100.00
6433;BME280;3249;42.690;23.260;2024-01-07T02:24:50;92466.56;;;5.16;100.00
6433;BME280;3249;42.690;23.260;2024-01-07T02:27:20;92446.13;;;5.27;100.00
6433;BME280;3249;42.690;23.260;2024-01-07T02:29:49;92428.09;;;5.17;100.00
6433;BME280;3249;42.690;23.260;2024-01-07T02:32:18;92420.16;;;5.30;100.00
6433;BME280;3249;42.690;23.260;2024-01-07T02:34:48;92421.00;;;5.36;100.00
6433;BME280;3249;42.690;23.260;2024-01-07T02:37:17;92423.81;;;5.51;100.00
6433;BME280;3249;42.690;23.260;2024-01-07T02:39:46;92420.13;;;5.42;100.00
6433;BME280;3249;42.690;23.260;2024-01-07T02:42:18;92426.16;;;5.52;100.00
6433;BME280;3249;42.690;23.260;2024-01-07T02:44:47;92422.66;;;5.58;100.00
6433;BME280;3249;42.690;23.260;2024-01-07T02:47:16;92424.13;;;5.54;100.00
6433;BME280;3249;42.690;23.260;2024-01-07T02:49:46;92414.84;;;5.48;100.00
6433;BME280;3249;42.690;23.260;2024-01-07T02:52:15;92423.16;;;5.55;100.00
6433;BME280;3249;42.690;23.260;2024-01-07T02:54:45;92421.28;;;5.67;100.00
6433;BME280;3249;42.690;23.260;2024-01-07T02:57:14;92430.56;;;5.73;100.00
6433;BME280;3249;42.690;23.260;2024-01-07T02:59:46;92430.09;;;5.43;100.00
6433;BME280;3249;42.690;23.260;2024-01-07T03:02:15;92432.22;;;5.35;100.00
6433;BME280;3249;42.690;23.260;2024-01-07T03:04:44;92455.00;;;5.69;100.00
6433;BME280;3249;42.690;23.260;2024-01-07T03:07:13;92460.28;;;5.79;100.00
6433;BME280;3249;42.690;23.260;2024-01-07T03:09:42;92483.44;;;5.89;100.00
6433;BME280;3249;42.690;23.260;2024-01-07T03:12:12;92479.25;;;6.00;100.00
6433;BME280;3249;42.690;23.260;2024-01-07T03:14:41;92474.53;;;6.08;100.00
6433;BME280;3249;42.690;23.260;2024-01-07T03:17:13;92473.84;;;6.13;100.00
6433;BME280;3249;42.690;23.260;2024-01-07T03:19:43;92483.22;;;6.07;100.00
6433;BME280;3249;42.690;23.260;2024-01-07T03:22:12;92488.25;;;6.02;100.00
6433;BME280;3249;42.690;23.260;2024-01-07T03:24:42;92476.16;;;5.98;100.00
6433;BME280;3249;42.690;23.260;2024-01-07T03:27:11;92478.88;;;6.24;100.00
6433;BME280;3249;42.690;23.260;2024-01-07T03:29:40;92492.09;;;6.38;100.00
6433;BME280;3249;42.690;23.260;2024-01-07T03:32:13;92491.69;;;6.29;100.00
6433;BME280;3249;42.690;23.260;2024-01-07T03:34:42;92485.16;;;6.55;100.00
6433;BME280;3249;42.690;23.260;2024-01-07T03:37:11;92477.94;;;6.68;100.00
6433;BME280;3249;42.690;23.260;2024-01-07T03:39:41;92475.03;;;6.81;100.00
6433;BME280;3249;42.690;23.260;2024-01-07T03:42:11;92475.22;;;6.96;100.00
6433;BME280;3249;42.690;23.260;2024-01-07T03:44:40;92450.84;;;6.89;100.00
6433;BME280;3249;42.690;23.260;2024-01-07T03:47:09;92465.81;;;7.23;100.00
6433;BME280;3249;42.690;23.260;2024-01-07T03:49:41;92459.56;;;7.36;100.00
6433;BME280;3249;42.690;23.260;2024-01-07T03:52:10;92447.94;;;7.28;100.00
6433;BME280;3249;42.690;23.260;2024-01-07T03:54:39;92447.72;;;7.30;100.00
6433;BME280;3249;42.690;23.260;2024-01-07T03:57:08;92442.41;;;7.36;100.00
6433;BME280;3249;42.690;23.260;2024-01-07T03:59:37;92427.19;;;7.25;100.00
6433;BME280;3249;42.690;23.260;2024-01-07T04:02:06;92429.56;;;7.31;100.00
6433;BME280;3249;42.690;23.260;2024-01-07T04:04:37;92442.91;;;7.33;100.00
6433;BME280;3249;42.690;23.260;2024-01-07T04:07:08;92436.44;;;7.31;100.00
6433;BME280;3249;42.690;23.260;2024-01-07T04:09:37;92431.69;;;7.39;100.00
6433;BME280;3249;42.690;23.260;2024-01-07T04:12:07;92428.84;;;7.36;100.00
6433;BME280;3249;42.690;23.260;2024-01-07T04:14:36;92430.47;;;7.47;100.00
6433;BME280;3249;42.690;23.260;2024-01-07T04:17:07;92420.09;;;7.58;100.00
6433;BME280;3249;42.690;23.260;2024-01-07T04:19:37;92397.56;;;7.60;100.00
6433;BME280;3249;42.690;23.260;2024-01-07T04:22:09;92396.19;;;7.79;100.00
6433;BME280;3249;42.690;23.260;2024-01-07T04:24:40;92395.25;;;7.90;100.00
6433;BME280;3249;42.690;23.260;2024-01-07T04:27:10;92398.28;;;7.87;100.00
6433;BME280;3249;42.690;23.260;2024-01-07T04:29:39;92405.63;;;7.74;100.00
6433;BME280;3249;42.690;23.260;2024-01-07T04:32:09;92407.00;;;7.86;100.00
6433;BME280;3249;42.690;23.260;2024-01-07T04:34:38;92399.16;;;7.66;100.00
6433;BME280;3249;42.690;23.260;2024-01-07T04:37:10;92405.97;;;7.87;100.00
6433;BME280;3249;42.690;23.260;2024-01-07T04:39:39;92394.22;;;7.91;100.00
6433;BME280;3249;42.690;23.260;2024-01-07T04:42:09;92399.84;;;7.88;100.00
6433;BME280;3249;42.690;23.260;2024-01-07T04:44:38;92392.69;;;7.90;100.00
6433;BME280;3249;42.690;23.260;2024-01-07T04:47:23;92404.78;;;7.63;100.00
6433;BME280;3249;42.690;23.260;2024-01-07T04:49:52;92386.41;;;7.40;100.00
6433;BME280;3249;42.690;23.260;2024-01-07T04:52:28;92398.56;;;7.54;100.00
6433;BME280;3249;42.690;23.260;2024-01-07T04:54:57;92395.84;;;7.39;100.00
6433;BME280;3249;42.690;23.260;2024-01-07T04:57:26;92405.41;;;7.49;100.00
6433;BME280;3249;42.690;23.260;2024-01-07T04:59:55;92420.22;;;7.73;100.00
6433;BME280;3249;42.690;23.260;2024-01-07T05:02:25;92422.84;;;7.83;100.00
6433;BME280;3249;42.690;23.260;2024-01-07T05:04:54;92422.28;;;7.76;100.00
6433;BME280;3249;42.690;23.260;2024-01-07T05:07:23;92412.91;;;7.87;100.00
6433;BME280;3249;42.690;23.260;2024-01-07T05:09:55;92404.03;;;7.99;100.00
6433;BME280;3249;42.690;23.260;2024-01-07T05:12:24;92397.53;;;7.87;100.00
6433;BME280;3249;42.690;23.260;2024-01-07T05:14:53;92387.16;;;7.40;100.00
6433;BME280;3249;42.690;23.260;2024-01-07T05:17:23;92399.19;;;7.40;100.00
6433;BME280;3249;42.690;23.260;2024-01-07T05:19:55;92399.13;;;7.61;100.00
6433;BME280;3249;42.690;23.260;2024-01-07T05:22:24;92389.13;;;7.60;100.00
6433;BME280;3249;42.690;23.260;2024-01-07T05:24:55;92390.25;;;7.42;100.00
6433;BME280;3249;42.690;23.260;2024-01-07T05:27:25;92391.31;;;7.46;100.00
6433;BME280;3249;42.690;23.260;2024-01-07T05:29:54;92385.38;;;7.41;100.00
6433;BME280;3249;42.690;23.260;2024-01-07T05:32:23;92384.31;;;7.37;100.00
6433;BME280;3249;42.690;23.260;2024-01-07T05:34:52;92383.25;;;7.33;100.00
6433;BME280;3249;42.690;23.260;2024-01-07T05:37:22;92393.34;;;7.18;100.00
6433;BME280;3249;42.690;23.260;2024-01-07T05:39:51;92391.09;;;7.21;100.00
6433;BME280;3249;42.690;23.260;2024-01-07T05:42:23;92383.59;;;6.88;100.00
6433;BME280;3249;42.690;23.260;2024-01-07T05:44:53;92384.06;;;6.85;100.00
6433;BME280;3249;42.690;23.260;2024-01-07T05:47:22;92369.97;;;6.83;100.00
6433;BME280;3249;42.690;23.260;2024-01-07T05:49:51;92383.19;;;7.01;100.00
6433;BME280;3249;42.690;23.260;2024-01-07T05:52:21;92363.00;;;7.00;100.00
6433;BME280;3249;42.690;23.260;2024-01-07T05:54:50;92354.97;;;6.91;100.00
6433;BME280;3249;42.690;23.260;2024-01-07T05:57:19;92355.88;;;6.80;100.00
6433;BME280;3249;42.690;23.260;2024-01-07T05:59:51;92371.00;;;6.60;100.00
6433;BME280;3249;42.690;23.260;2024-01-07T06:02:21;92380.94;;;6.78;100.00
6433;BME280;3249;42.690;23.260;2024-01-07T06:04:50;92377.22;;;6.91;100.00
6433;BME280;3249;42.690;23.260;2024-01-07T06:07:20;92371.66;;;6.99;100.00
6433;BME280;3249;42.690;23.260;2024-01-07T06:09:49;92368.16;;;7.05;100.00
6433;BME280;3249;42.690;23.260;2024-01-07T06:12:18;92375.28;;;7.03;100.00
6433;BME280;3249;42.690;23.260;2024-01-07T06:14:47;92371.81;;;6.87;100.00
6433;BME280;3249;42.690;23.260;2024-01-07T06:17:20;92373.50;;;6.77;100.00
6433;BME280;3249;42.690;23.260;2024-01-07T06:19:50;92380.09;;;6.73;100.00
6433;BME280;3249;42.690;23.260;2024-01-07T06:22:19;92369.44;;;6.81;100.00
6433;BME280;3249;42.690;23.260;2024-01-07T06:24:48;92372.72;;;6.33;100.00
6433;BME280;3249;42.690;23.260;2024-01-07T06:27:17;92384.50;;;6.56;100.00
6433;BME280;3249;42.690;23.260;2024-01-07T06:29:46;92385.88;;;6.63;100.00
6433;BME280;3249;42.690;23.260;2024-01-07T06:32:16;92386.56;;;6.37;100.00
6433;BME280;3249;42.690;23.260;2024-01-07T06:34:48;92397.03;;;6.57;100.00
6433;BME280;3249;42.690;23.260;2024-01-07T06:37:18;92399.53;;;6.74;100.00
6433;BME280;3249;42.690;23.260;2024-01-07T06:39:47;92403.34;;;6.71;100.00
6433;BME280;3249;42.690;23.260;2024-01-07T06:42:16;92395.72;;;6.76;100.00
6433;BME280;3249;42.690;23.260;2024-01-07T06:44:46;92401.66;;;6.82;100.00
6433;BME280;3249;42.690;23.260;2024-01-07T06:47:15;92414.84;;;6.95;100.00
6433;BME280;3249;42.690;23.260;2024-01-07T06:49:44;92396.78;;;7.02;100.00
6433;BME280;3249;42.690;23.260;2024-01-07T06:52:16;92400.69;;;7.09;100.00
6433;BME280;3249;42.690;23.260;2024-01-07T06:54:48;92403.81;;;7.16;100.00
6433;BME280;3249;42.690;23.260;2024-01-07T06:57:17;92400.75;;;7.14;100.00
6433;BME280;3249;42.690;23.260;2024-01-07T06:59:46;92406.38;;;7.16;100.00
6433;BME280;3249;42.690;23.260;2024-01-07T07:02:16;92393.06;;;7.14;100.00
6433;BME280;3249;42.690;23.260;2024-01-07T07:04:46;92401.25;;;7.16;100.00
6433;BME280;3249;42.690;23.260;2024-01-07T07:07:20;92415.34;;;7.19;100.00
6433;BME280;3249;42.690;23.260;2024-01-07T07:09:50;92393.81;;;7.15;100.00
6433;BME280;3249;42.690;23.260;2024-01-07T07:12:20;92416.09;;;7.14;100.00
6433;BME280;3249;42.690;23.260;2024-01-07T07:14:49;92395.09;;;7.12;100.00
6433;BME280;3249;42.690;23.260;2024-01-07T07:17:18;92414.06;;;7.16;100.00
6433;BME280;3249;42.690;23.260;2024-01-07T07:19:48;92397.72;;;7.17;100.00
6433;BME280;3249;42.690;23.260;2024-01-07T07:22:20;92406.53;;;7.31;100.00
6433;BME280;3249;42.690;23.260;2024-01-07T07:24:49;92400.31;;;6.96;100.00
6433;BME280;3249;42.690;23.260;2024-01-07T07:27:18;92396.19;;;6.73;100.00
6433;BME280;3249;42.690;23.260;2024-01-07T07:29:48;92402.94;;;7.06;100.00
6433;BME280;3249;42.690;23.260;2024-01-07T07:32:19;92404.38;;;7.18;100.00
6433;BME280;3249;42.690;23.260;2024-01-07T07:34:49;92418.38;;;7.37;100.00
6433;BME280;3249;42.690;23.260;2024-01-07T07:37:21;92419.53;;;7.25;100.00
6433;BME280;3249;42.690;23.260;2024-01-07T07:39:51;92407.16;;;7.43;100.00
6433;BME280;3249;42.690;23.260;2024-01-07T07:42:21;92401.13;;;7.28;100.00
6433;BME280;3249;42.690;23.260;2024-01-07T07:44:52;92398.53;;;7.49;100.00
6433;BME280;3249;42.690;23.260;2024-01-07T07:47:21;92400.66;;;7.62;100.00
6433;BME280;3249;42.690;23.260;2024-01-07T07:49:50;92396.41;;;7.73;100.00
6433;BME280;3249;42.690;23.260;2024-01-07T07:52:22;92395.13;;;7.75;100.00
6433;BME280;3249;42.690;23.260;2024-01-07T07:54:53;92407.13;;;7.70;100.00
6433;BME280;3249;42.690;23.260;2024-01-07T07:57:23;92390.91;;;7.59;100.00
6433;BME280;3249;42.690;23.260;2024-01-07T07:59:52;92393.03;;;7.67;100.00
6433;BME280;3249;42.690;23.260;2024-01-07T08:02:24;92378.72;;;7.71;100.00
6433;BME280;3249;42.690;23.260;2024-01-07T08:04:54;92389.13;;;7.60;100.00
6433;BME280;3249;42.690;23.260;2024-01-07T08:07:26;92395.75;;;7.92;100.00
6433;BME280;3249;42.690;23.260;2024-01-07T08:09:56;92397.97;;;8.15;100.00
6433;BME280;3249;42.690;23.260;2024-01-07T08:12:25;92367.78;;;7.81;100.00
6433;BME280;3249;42.690;23.260;2024-01-07T08:14:55;92408.56;;;8.24;100.00
6433;BME280;3249;42.690;23.260;2024-01-07T08:17:24;92397.38;;;8.35;100.00
6433;BME280;3249;42.690;23.260;2024-01-07T08:19:55;92406.38;;;8.47;100.00
6433;BME280;3249;42.690;23.260;2024-01-07T08:22:27;92395.75;;;8.24;100.00
6433;BME280;3249;42.690;23.260;2024-01-07T08:24:56;92403.56;;;8.44;100.00
6433;BME280;3249;42.690;23.260;2024-01-07T08:27:25;92398.16;;;8.40;100.00
6433;BME280;3249;42.690;23.260;2024-01-07T08:29:55;92392.00;;;8.41;100.00
6433;BME280;3249;42.690;23.260;2024-01-07T08:32:24;92379.59;;;8.23;100.00
6433;BME280;3249;42.690;23.260;2024-01-07T08:34:55;92391.78;;;8.43;100.00
6433;BME280;3249;42.690;23.260;2024-01-07T08:37:28;92397.72;;;8.53;100.00
6433;BME280;3249;42.690;23.260;2024-01-07T08:40:00;92395.16;;;8.53;100.00
6433;BME280;3249;42.690;23.260;2024-01-07T08:42:30;92408.78;;;8.64;100.00
6433;BME280;3249;42.690;23.260;2024-01-07T08:45:00;92410.81;;;8.62;100.00
6433;BME280;3249;42.690;23.260;2024-01-07T08:47:30;92394.69;;;8.61;100.00
6433;BME280;3249;42.690;23.260;2024-01-07T08:50:02;92393.38;;;8.59;100.00
6433;BME280;3249;42.690;23.260;2024-01-07T08:52:34;92381.88;;;8.66;100.00
6433;BME280;3249;42.690;23.260;2024-01-07T08:55:06;92349.47;;;8.40;100.00
6433;BME280;3249;42.690;23.260;2024-01-07T08:57:44;92380.13;;;8.82;100.00
6433;BME280;3249;42.690;23.260;2024-01-07T09:00:16;92375.53;;;8.79;100.00
6433;BME280;3249;42.690;23.260;2024-01-07T09:02:45;92385.06;;;8.98;100.00
6433;BME280;3249;42.690;23.260;2024-01-07T09:05:19;92380.97;;;9.02;100.00
6433;BME280;3249;42.690;23.260;2024-01-07T09:07:56;92379.97;;;9.18;100.00
6433;BME280;3249;42.690;23.260;2024-01-07T09:10:27;92369.88;;;8.82;100.00
6433;BME280;3249;42.690;23.260;2024-01-07T09:12:58;92382.75;;;8.97;100.00
6433;BME280;3249;42.690;23.260;2024-01-07T09:15:28;92407.72;;;9.31;100.00
6433;BME280;3249;42.690;23.260;2024-01-07T09:18:01;92402.38;;;9.43;100.00
6433;BME280;3249;42.690;23.260;2024-01-07T09:20:31;92399.81;;;9.53;100.00
6433;BME280;3249;42.690;23.260;2024-01-07T09:23:06;92407.78;;;9.57;100.00
6433;BME280;3249;42.690;23.260;2024-01-07T09:25:36;92406.00;;;9.72;100.00
6433;BME280;3249;42.690;23.260;2024-01-07T09:28:07;92404.47;;;9.91;100.00
6433;BME280;3249;42.690;23.260;2024-01-07T09:30:37;92387.75;;;9.74;100.00
6433;BME280;3249;42.690;23.260;2024-01-07T09:33:10;92399.31;;;9.91;100.00
6433;BME280;3249;42.690;23.260;2024-01-07T09:35:41;92395.50;;;10.09;100.00
6433;BME280;3249;42.690;23.260;2024-01-07T09:38:13;92397.53;;;10.22;100.00
6433;BME280;3249;42.690;23.260;2024-01-07T09:40:42;92392.38;;;10.37;100.00
6433;BME280;3249;42.690;23.260;2024-01-07T09:43:12;92402.38;;;10.53;100.00
6433;BME280;3249;42.690;23.260;2024-01-07T09:45:42;92403.31;;;10.77;100.00
6433;BME280;3249;42.690;23.260;2024-01-07T09:48:16;92389.38;;;10.93;100.00
6433;BME280;3249;42.690;23.260;2024-01-07T09:50:54;92384.63;;;11.15;100.00
6433;BME280;3249;42.690;23.260;2024-01-07T09:53:30;92386.84;;;11.32;100.00
6433;BME280;3249;42.690;23.260;2024-01-07T09:56:07;92409.19;;;11.46;100.00
6433;BME280;3249;42.690;23.260;2024-01-07T09:58:45;92366.03;;;10.70;100.00
6433;BME280;3249;42.690;23.260;2024-01-07T10:01:19;92373.63;;;11.00;100.00
6433;BME280;3249;42.690;23.260;2024-01-07T10:03:48;92385.81;;;11.33;100.00
6433;BME280;3249;42.690;23.260;2024-01-07T10:06:20;92385.91;;;11.13;100.00
6433;BME280;3249;42.690;23.260;2024-01-07T10:08:56;92384.63;;;11.15;100.00
6433;BME280;3249;42.690;23.260;2024-01-07T10:11:30;92369.53;;;10.99;100.00
6433;BME280;3249;42.690;23.260;2024-01-07T10:14:03;92365.41;;;10.93;100.00
6433;BME280;3249;42.690;23.260;2024-01-07T10:16:34;92360.06;;;10.79;100.00
6433;BME280;3249;42.690;23.260;2024-01-07T10:19:09;92344.91;;;10.78;100.00
6433;BME280;3249;42.690;23.260;2024-01-07T10:21:44;92351.31;;;10.85;100.00
6433;BME280;3249;42.690;23.260;2024-01-07T10:24:21;92352.78;;;10.96;100.00
6433;BME280;3249;42.690;23.260;2024-01-07T10:26:52;92358.22;;;10.90;100.00
6433;BME280;3249;42.690;23.260;2024-01-07T10:29:24;92359.72;;;11.01;100.00
6433;BME280;3249;42.690;23.260;2024-01-07T10:32:02;92330.16;;;10.88;98.78
6433;BME280;3249;42.690;23.260;2024-01-07T10:34:34;92348.44;;;10.92;99.36
6433;BME280;3249;42.690;23.260;2024-01-07T10:37:06;92334.81;;;10.86;96.37
6433;BME280;3249;42.690;23.260;2024-01-07T10:39:40;92337.97;;;10.73;97.52
6433;BME280;3249;42.690;23.260;2024-01-07T10:42:10;92330.00;;;10.70;96.88
6433;BME280;3249;42.690;23.260;2024-01-07T10:44:42;92325.66;;;10.60;98.73
6433;BME280;3249;42.690;23.260;2024-01-07T10:47:12;92328.00;;;10.57;100.00
6433;BME280;3249;42.690;23.260;2024-01-07T10:49:44;92329.03;;;10.61;100.00
6433;BME280;3249;42.690;23.260;2024-01-07T10:52:30;92315.94;;;10.57;100.00
6433;BME280;3249;42.690;23.260;2024-01-07T10:55:09;92278.72;;;10.30;100.00
6433;BME280;3249;42.690;23.260;2024-01-07T10:57:42;92322.63;;;10.53;100.00
6433;BME280;3249;42.690;23.260;2024-01-07T11:00:17;92321.00;;;10.67;96.90
6433;BME280;3249;42.690;23.260;2024-01-07T11:03:01;92320.41;;;10.90;99.08
6433;BME280;3249;42.690;23.260;2024-01-07T11:05:40;92327.50;;;11.08;96.58
6433;BME280;3249;42.690;23.260;2024-01-07T11:08:19;92330.34;;;11.07;95.21
6433;BME280;3249;42.690;23.260;2024-01-07T11:10:59;92335.91;;;11.24;95.05
6433;BME280;3249;42.690;23.260;2024-01-07T11:13:34;92331.19;;;11.36;95.06
6433;BME280;3249;42.690;23.260;2024-01-07T11:16:05;92336.78;;;11.48;92.51
6433;BME280;3249;42.690;23.260;2024-01-07T11:18:38;92339.84;;;11.50;91.45
6433;BME280;3249;42.690;23.260;2024-01-07T11:21:10;92336.69;;;11.58;88.38
6433;BME280;3249;42.690;23.260;2024-01-07T11:23:45;92343.88;;;11.71;87.71
6433;BME280;3249;42.690;23.260;2024-01-07T11:26:17;92342.97;;;11.85;100.00
6433;BME280;3249;42.690;23.260;2024-01-07T11:28:50;92339.50;;;12.00;100.00
6433;BME280;3249;42.690;23.260;2024-01-07T11:31:44;92339.84;;;12.17;100.00
6433;BME280;3249;42.690;23.260;2024-01-07T11:34:40;92337.16;;;12.27;100.00
6433;BME280;3249;42.690;23.260;2024-01-07T11:37:15;92338.22;;;12.26;100.00
6433;BME280;3249;42.690;23.260;2024-01-07T11:39:46;92340.47;;;12.32;100.00
6433;BME280;3249;42.690;23.260;2024-01-07T11:42:18;92334.81;;;12.30;100.00
6433;BME280;3249;42.690;23.260;2024-01-07T11:44:50;92341.06;;;12.24;100.00
6433;BME280;3249;42.690;23.260;2024-01-07T11:47:21;92338.91;;;12.08;100.00
6433;BME280;3249;42.690;23.260;2024-01-07T11:49:51;92347.69;;;12.07;100.00
6433;BME280;3249;42.690;23.260;2024-01-07T11:52:21;92311.66;;;11.97;100.00
6433;BME280;3249;42.690;23.260;2024-01-07T11:54:50;92338.09;;;12.12;100.00
6433;BME280;3249;42.690;23.260;2024-01-07T11:57:22;92340.75;;;12.02;100.00
6433;BME280;3249;42.690;23.260;2024-01-07T11:59:51;92348.84;;;11.91;100.00
6433;BME280;3249;42.690;23.260;2024-01-07T12:02:21;92335.03;;;11.77;100.00
6433;BME280;3249;42.690;23.260;2024-01-07T12:04:52;92338.63;;;11.81;100.00
6433;BME280;3249;42.690;23.260;2024-01-07T12:07:21;92338.94;;;12.03;100.00
6433;BME280;3249;42.690;23.260;2024-01-07T12:09:55;92336.25;;;12.13;100.00
6433;BME280;3249;42.690;23.260;2024-01-07T12:12:27;92339.69;;;12.08;100.00
6433;BME280;3249;42.690;23.260;2024-01-07T12:14:57;92333.47;;;12.09;100.00
6433;BME280;3249;42.690;23.260;2024-01-07T12:17:28;92340.25;;;12.00;100.00
6433;BME280;3249;42.690;23.260;2024-01-07T12:19:57;92335.09;;;12.00;100.00
6433;BME280;3249;42.690;23.260;2024-01-07T12:22:27;92343.13;;;11.94;100.00
6433;BME280;3249;42.690;23.260;2024-01-07T12:25:03;92344.69;;;11.95;100.00
6433;BME280;3249;42.690;23.260;2024-01-07T12:27:37;92332.66;;;11.85;100.00
6433;BME280;3249;42.690;23.260;2024-01-07T12:30:07;92339.28;;;11.91;100.00
6433;BME280;3249;42.690;23.260;2024-01-07T12:32:38;92309.59;;;11.32;100.00
6433;BME280;3249;42.690;23.260;2024-01-07T12:35:11;92318.78;;;11.43;100.00
6433;BME280;3249;42.690;23.260;2024-01-07T12:38:02;92340.44;;;11.80;100.00
6433;BME280;3249;42.690;23.260;2024-01-07T12:40:31;92343.66;;;11.96;100.00
6433;BME280;3249;42.690;23.260;2024-01-07T12:43:10;92337.97;;;11.99;100.00
6433;BME280;3249;42.690;23.260;2024-01-07T12:45:39;92333.47;;;12.09;100.00
6433;BME280;3249;42.690;23.260;2024-01-07T12:48:13;92329.19;;;12.00;100.00
6433;BME280;3249;42.690;23.260;2024-01-07T12:50:42;92337.91;;;12.04;100.00
6433;BME280;3249;42.690;23.260;2024-01-07T12:53:13;92339.69;;;12.08;100.00
6433;BME280;3249;42.690;23.260;2024-01-07T12:55:46;92346.09;;;12.11;100.00
6433;BME280;3249;42.690;23.260;2024-01-07T12:58:20;92332.22;;;12.02;100.00
6433;BME280;3249;42.690;23.260;2024-01-07T13:00:53;92346.13;;;12.06;100.00
6433;BME280;3249;42.690;23.260;2024-01-07T13:03:23;92353.78;;;12.16;100.00
6433;BME280;3249;42.690;23.260;2024-01-07T13:05:52;92351.00;;;12.07;100.00
6433;BME280;3249;42.690;23.260;2024-01-07T13:08:22;92351.78;;;12.08;100.00
6433;BME280;3249;42.690;23.260;2024-01-07T13:10:52;92343.53;;;12.11;100.00
6433;BME280;3249;42.690;23.260;2024-01-07T13:13:25;92351.19;;;12.16;100.00
6433;BME280;3249;42.690;23.260;2024-01-07T13:16:08;92347.63;;;12.12;100.00
6433;BME280;3249;42.690;23.260;2024-01-07T13:18:37;92356.31;;;12.21;100.00
6433;BME280;3249;42.690;23.260;2024-01-07T13:21:07;92357.94;;;12.12;100.00
6433;BME280;3249;42.690;23.260;2024-01-07T13:23:37;92362.97;;;11.98;100.00
6433;BME280;3249;42.690;23.260;2024-01-07T13:26:09;92353.19;;;11.95;100.00
6433;BME280;3249;42.690;23.260;2024-01-07T13:28:41;92352.97;;;11.92;100.00